< < Back
Terminal Aerodrome Forecast


Current Version              Previous Versions:   1  2  3  4  5  6  7  8  9  

Terminal Aerodrome Forecast

548
FTUS42 KFFC 220800 AAA
TAFCSG
TAF AMD
KCSG 220834Z 2209/2306 00000KT P6SM BKN007
     FM221400 00000KT P6SM BKN025
     FM221600 12005KT P6SM VCSH SCT025 BKN035
      TEMPO 2219/2223 5SM -TSRA BR BKN015CB
     FM230000 10005KT P6SM SCT040 BKN120=

Latest METAR

213
SAUS70 KWBC 220900
MTRCSG
METAR KCSG 220851Z AUTO 09003KT 10SM OVC009 23/22 A3004 RMK AO2
RAB0754E18 SLP167 P0001 60001 T02280217 55011


USA.gov is the U.S. government's official web portal to all federal, state and local government web resources and services.